Madison, Maine
Current Conditions -  °F | °C
As of 12:53 PM on Sunday 25 Jan 2015 (Local Time) from KAUG Reporting Station
Clear Clear  
Wind Chill: -9°   Ceiling: Unl
Heat Index: -3°   Visibility: 10mi
Dew Point: -15°   Wind: 13mph
Humidity: 41%   Direction: 310°NW
Pressure: 29.55"   Gusts: NA
Location:  44.8°N, 69.88°W
Report Text: KAUG 251753Z AUTO 31011KT 10SM CLR M03/M15 A2955 RMK AO2 SLP010 60000 T10331150 10000 21039 51027
Loading
Personal Weather Stations






























Interactive Weather Map New forecast layout! Learn more

10-Day Weather Forecast

Advertisements
Track Severe Weather on mobile